sensor_id;sensor_type;location;lat;lon;timestamp;pressure;altitude;pressure_sealevel;temperature;humidity
63285;BME280;49409;55.708;37.522;2023-03-03T00:02:23;97974.25;;;6.18;48.40
63285;BME280;49409;55.708;37.522;2023-03-03T00:04:48;97964.88;;;6.19;48.58
63285;BME280;49409;55.708;37.522;2023-03-03T00:07:14;97958.19;;;6.20;48.36
63285;BME280;49409;55.708;37.522;2023-03-03T00:09:45;97953.25;;;6.14;49.27
63285;BME280;49409;55.708;37.522;2023-03-03T00:12:20;97955.53;;;6.16;48.89
63285;BME280;49409;55.708;37.522;2023-03-03T00:14:45;97951.69;;;6.13;48.78
63285;BME280;49409;55.708;37.522;2023-03-03T00:17:21;97957.03;;;6.21;48.94
63285;BME280;49409;55.708;37.522;2023-03-03T00:19:47;97956.16;;;6.24;49.14
63285;BME280;49409;55.708;37.522;2023-03-03T00:22:15;97953.38;;;6.27;48.52
63285;BME280;49409;55.708;37.522;2023-03-03T00:24:45;97954.84;;;6.32;48.43
63285;BME280;49409;55.708;37.522;2023-03-03T00:27:25;97948.09;;;6.37;48.53
63285;BME280;49409;55.708;37.522;2023-03-03T00:29:55;97936.50;;;6.32;48.79
63285;BME280;49409;55.708;37.522;2023-03-03T00:34:47;97934.88;;;6.35;48.72
63285;BME280;49409;55.708;37.522;2023-03-03T00:37:21;97924.63;;;6.39;48.68
63285;BME280;49409;55.708;37.522;2023-03-03T00:39:47;97928.38;;;6.45;48.78
63285;BME280;49409;55.708;37.522;2023-03-03T00:42:13;97926.69;;;6.51;48.95
63285;BME280;49409;55.708;37.522;2023-03-03T00:44:51;97915.75;;;6.51;48.49
63285;BME280;49409;55.708;37.522;2023-03-03T00:47:29;97911.91;;;6.49;48.54
63285;BME280;49409;55.708;37.522;2023-03-03T00:52:30;97898.94;;;6.53;48.85
63285;BME280;49409;55.708;37.522;2023-03-03T00:54:57;97904.34;;;6.57;48.50
63285;BME280;49409;55.708;37.522;2023-03-03T00:57:23;97902.28;;;6.61;48.50
63285;BME280;49409;55.708;37.522;2023-03-03T00:59:48;97897.16;;;6.63;48.43
63285;BME280;49409;55.708;37.522;2023-03-03T01:02:14;97906.56;;;6.62;49.01
63285;BME280;49409;55.708;37.522;2023-03-03T01:04:40;97898.25;;;6.65;48.84
63285;BME280;49409;55.708;37.522;2023-03-03T01:07:05;97898.44;;;6.58;49.12
63285;BME280;49409;55.708;37.522;2023-03-03T01:09:31;97899.13;;;6.62;48.67
63285;BME280;49409;55.708;37.522;2023-03-03T01:11:56;97893.59;;;6.66;48.71
63285;BME280;49409;55.708;37.522;2023-03-03T01:14:22;97896.59;;;6.71;48.61
63285;BME280;49409;55.708;37.522;2023-03-03T01:16:47;97890.25;;;6.74;48.82
63285;BME280;49409;55.708;37.522;2023-03-03T01:19:14;97884.03;;;6.74;49.10
63285;BME280;49409;55.708;37.522;2023-03-03T01:21:39;97881.78;;;6.69;48.98
63285;BME280;49409;55.708;37.522;2023-03-03T01:24:04;97878.03;;;6.63;49.40
63285;BME280;49409;55.708;37.522;2023-03-03T01:26:30;97878.97;;;6.56;49.58
63285;BME280;49409;55.708;37.522;2023-03-03T01:28:55;97872.72;;;6.55;49.21
63285;BME280;49409;55.708;37.522;2023-03-03T01:31:20;97874.78;;;6.51;49.94
63285;BME280;49409;55.708;37.522;2023-03-03T01:33:46;97874.44;;;6.49;49.50
63285;BME280;49409;55.708;37.522;2023-03-03T01:36:11;97875.97;;;6.50;49.85
63285;BME280;49409;55.708;37.522;2023-03-03T01:38:37;97878.72;;;6.50;49.44
63285;BME280;49409;55.708;37.522;2023-03-03T01:41:02;97868.13;;;6.52;49.55
63285;BME280;49409;55.708;37.522;2023-03-03T01:43:28;97869.06;;;6.46;49.80
63285;BME280;49409;55.708;37.522;2023-03-03T01:53:13;97887.59;;;6.54;49.85
63285;BME280;49409;55.708;37.522;2023-03-03T01:55:40;97873.94;;;6.54;49.86
63285;BME280;49409;55.708;37.522;2023-03-03T02:00:34;97869.16;;;6.59;49.64
63285;BME280;49409;55.708;37.522;2023-03-03T02:03:00;97863.19;;;6.64;49.69
63285;BME280;49409;55.708;37.522;2023-03-03T02:05:26;97861.47;;;6.70;49.44
63285;BME280;49409;55.708;37.522;2023-03-03T02:07:52;97865.38;;;6.69;49.95
63285;BME280;49409;55.708;37.522;2023-03-03T02:10:17;97858.91;;;6.63;50.12
63285;BME280;49409;55.708;37.522;2023-03-03T02:12:50;97856.84;;;6.67;49.44
63285;BME280;49409;55.708;37.522;2023-03-03T02:15:17;97855.94;;;6.73;49.69
63285;BME280;49409;55.708;37.522;2023-03-03T02:17:43;97856.00;;;6.70;49.52
63285;BME280;49409;55.708;37.522;2023-03-03T02:22:55;97841.31;;;6.64;50.32
63285;BME280;49409;55.708;37.522;2023-03-03T02:25:38;97840.72;;;6.72;49.81
63285;BME280;49409;55.708;37.522;2023-03-03T02:28:06;97834.47;;;6.72;49.80
63285;BME280;49409;55.708;37.522;2023-03-03T02:30:35;97830.09;;;6.74;50.11
63285;BME280;49409;55.708;37.522;2023-03-03T02:33:01;97821.56;;;6.72;49.78
63285;BME280;49409;55.708;37.522;2023-03-03T02:38:05;97824.56;;;6.78;49.79
63285;BME280;49409;55.708;37.522;2023-03-03T02:40:32;97823.34;;;6.79;49.90
63285;BME280;49409;55.708;37.522;2023-03-03T02:43:00;97818.22;;;6.81;49.79
63285;BME280;49409;55.708;37.522;2023-03-03T02:45:29;97813.97;;;6.80;50.07
63285;BME280;49409;55.708;37.522;2023-03-03T02:47:54;97806.72;;;6.73;50.24
63285;BME280;49409;55.708;37.522;2023-03-03T02:50:19;97801.34;;;6.70;50.27
63285;BME280;49409;55.708;37.522;2023-03-03T02:52:45;97796.28;;;6.68;50.12
63285;BME280;49409;55.708;37.522;2023-03-03T02:55:10;97799.78;;;6.69;50.20
63285;BME280;49409;55.708;37.522;2023-03-03T02:57:35;97806.81;;;6.70;49.88
63285;BME280;49409;55.708;37.522;2023-03-03T03:00:01;97807.47;;;6.74;50.13
63285;BME280;49409;55.708;37.522;2023-03-03T03:02:26;97805.44;;;6.78;49.76
63285;BME280;49409;55.708;37.522;2023-03-03T03:04:51;97801.13;;;6.77;49.71
63285;BME280;49409;55.708;37.522;2023-03-03T03:07:17;97797.22;;;6.78;49.95
63285;BME280;49409;55.708;37.522;2023-03-03T03:09:42;97794.16;;;6.76;50.11
63285;BME280;49409;55.708;37.522;2023-03-03T03:12:07;97791.41;;;6.76;50.23
63285;BME280;49409;55.708;37.522;2023-03-03T03:14:33;97799.63;;;6.76;50.10
63285;BME280;49409;55.708;37.522;2023-03-03T03:16:58;97791.75;;;6.78;49.89
63285;BME280;49409;55.708;37.522;2023-03-03T03:19:24;97786.97;;;6.82;49.85
63285;BME280;49409;55.708;37.522;2023-03-03T03:21:49;97786.97;;;6.82;50.11
63285;BME280;49409;55.708;37.522;2023-03-03T03:24:14;97793.97;;;6.83;50.14
63285;BME280;49409;55.708;37.522;2023-03-03T03:26:40;97783.56;;;6.78;50.48
63285;BME280;49409;55.708;37.522;2023-03-03T03:29:05;97798.84;;;6.75;50.37
63285;BME280;49409;55.708;37.522;2023-03-03T03:31:31;97790.53;;;6.79;50.44
63285;BME280;49409;55.708;37.522;2023-03-03T03:33:57;97787.47;;;6.77;50.19
63285;BME280;49409;55.708;37.522;2023-03-03T03:36:24;97782.34;;;6.79;49.87
63285;BME280;49409;55.708;37.522;2023-03-03T03:38:51;97780.81;;;6.78;50.07
63285;BME280;49409;55.708;37.522;2023-03-03T03:41:16;97780.22;;;6.70;50.54
63285;BME280;49409;55.708;37.522;2023-03-03T03:43:41;97785.44;;;6.65;50.02
63285;BME280;49409;55.708;37.522;2023-03-03T03:46:07;97780.31;;;6.67;50.36
63285;BME280;49409;55.708;37.522;2023-03-03T03:48:32;97779.13;;;6.68;50.46
63285;BME280;49409;55.708;37.522;2023-03-03T03:50:57;97783.22;;;6.76;50.77
63285;BME280;49409;55.708;37.522;2023-03-03T03:53:23;97777.75;;;6.76;50.04
63285;BME280;49409;55.708;37.522;2023-03-03T03:55:48;97774.34;;;6.72;50.12
63285;BME280;49409;55.708;37.522;2023-03-03T03:58:14;97773.91;;;6.73;50.17
63285;BME280;49409;55.708;37.522;2023-03-03T04:00:41;97768.53;;;6.70;50.22
63285;BME280;49409;55.708;37.522;2023-03-03T04:03:07;97769.22;;;6.74;50.37
63285;BME280;49409;55.708;37.522;2023-03-03T04:05:33;97758.28;;;6.74;50.03
63285;BME280;49409;55.708;37.522;2023-03-03T04:07:58;97759.72;;;6.79;50.03
63285;BME280;49409;55.708;37.522;2023-03-03T04:10:24;97763.53;;;6.81;50.22
63285;BME280;49409;55.708;37.522;2023-03-03T04:12:49;97758.06;;;6.81;50.15
63285;BME280;49409;55.708;37.522;2023-03-03T04:15:14;97757.41;;;6.77;50.28
63285;BME280;49409;55.708;37.522;2023-03-03T04:17:40;97757.66;;;6.83;49.98
63285;BME280;49409;55.708;37.522;2023-03-03T04:20:05;97758.88;;;6.82;50.39
63285;BME280;49409;55.708;37.522;2023-03-03T04:22:31;97749.19;;;6.77;50.51
63285;BME280;49409;55.708;37.522;2023-03-03T04:24:58;97748.03;;;6.78;50.21
63285;BME280;49409;55.708;37.522;2023-03-03T04:27:23;97751.09;;;6.80;50.09
63285;BME280;49409;55.708;37.522;2023-03-03T04:29:49;97749.75;;;6.72;50.28
63285;BME280;49409;55.708;37.522;2023-03-03T04:32:14;97750.59;;;6.69;50.30
63285;BME280;49409;55.708;37.522;2023-03-03T04:34:40;97756.13;;;6.65;50.39
63285;BME280;49409;55.708;37.522;2023-03-03T04:37:05;97759.31;;;6.64;50.18
63285;BME280;49409;55.708;37.522;2023-03-03T04:39:31;97756.25;;;6.62;50.65
63285;BME280;49409;55.708;37.522;2023-03-03T04:41:56;97759.31;;;6.64;50.77
63285;BME280;49409;55.708;37.522;2023-03-03T04:44:21;97754.72;;;6.61;50.64
63285;BME280;49409;55.708;37.522;2023-03-03T04:46:46;97762.56;;;6.59;50.90
63285;BME280;49409;55.708;37.522;2023-03-03T04:49:12;97754.72;;;6.61;50.47
63285;BME280;49409;55.708;37.522;2023-03-03T04:51:37;97747.94;;;6.65;50.65
63285;BME280;49409;55.708;37.522;2023-03-03T04:54:03;97754.53;;;6.68;50.74
63285;BME280;49409;55.708;37.522;2023-03-03T04:56:29;97752.66;;;6.65;50.74
63285;BME280;49409;55.708;37.522;2023-03-03T04:58:55;97752.56;;;6.68;50.39
63285;BME280;49409;55.708;37.522;2023-03-03T05:01:20;97748.63;;;6.69;50.34
63285;BME280;49409;55.708;37.522;2023-03-03T05:03:46;97752.06;;;6.73;50.04
63285;BME280;49409;55.708;37.522;2023-03-03T05:06:12;97753.66;;;6.71;50.74
63285;BME280;49409;55.708;37.522;2023-03-03T05:08:37;97745.88;;;6.69;50.61
63285;BME280;49409;55.708;37.522;2023-03-03T05:11:02;97760.00;;;6.68;50.38
63285;BME280;49409;55.708;37.522;2023-03-03T05:13:28;97752.47;;;6.72;50.84
63285;BME280;49409;55.708;37.522;2023-03-03T05:15:54;97750.75;;;6.78;50.42
63285;BME280;49409;55.708;37.522;2023-03-03T05:18:20;97753.19;;;6.89;50.53
63285;BME280;49409;55.708;37.522;2023-03-03T05:20:46;97756.25;;;6.91;50.38
63285;BME280;49409;55.708;37.522;2023-03-03T05:23:12;97760.97;;;6.90;50.33
63285;BME280;49409;55.708;37.522;2023-03-03T05:25:38;97760.97;;;6.90;50.37
63285;BME280;49409;55.708;37.522;2023-03-03T05:28:04;97764.03;;;6.92;50.16
63285;BME280;49409;55.708;37.522;2023-03-03T05:30:29;97767.31;;;6.87;50.35
63285;BME280;49409;55.708;37.522;2023-03-03T05:32:55;97760.38;;;6.83;50.47
63285;BME280;49409;55.708;37.522;2023-03-03T05:35:20;97763.28;;;6.92;50.13
63285;BME280;49409;55.708;37.522;2023-03-03T05:37:45;97766.25;;;6.98;50.32
63285;BME280;49409;55.708;37.522;2023-03-03T05:40:13;97761.63;;;6.94;50.18
63285;BME280;49409;55.708;37.522;2023-03-03T05:42:39;97765.59;;;6.93;50.35
63285;BME280;49409;55.708;37.522;2023-03-03T05:45:04;97758.38;;;7.00;50.09
63285;BME280;49409;55.708;37.522;2023-03-03T05:47:30;97767.41;;;7.13;49.91
63285;BME280;49409;55.708;37.522;2023-03-03T05:49:55;97747.47;;;7.12;49.80
63285;BME280;49409;55.708;37.522;2023-03-03T05:52:20;97754.81;;;7.15;49.95
63285;BME280;49409;55.708;37.522;2023-03-03T05:54:48;97756.88;;;7.11;49.92
63285;BME280;49409;55.708;37.522;2023-03-03T05:57:13;97761.13;;;7.00;50.17
63285;BME280;49409;55.708;37.522;2023-03-03T05:59:39;97764.03;;;6.92;50.19
63285;BME280;49409;55.708;37.522;2023-03-03T06:02:04;97765.75;;;6.86;50.12
63285;BME280;49409;55.708;37.522;2023-03-03T06:04:30;97770.47;;;6.86;50.29
63285;BME280;49409;55.708;37.522;2023-03-03T06:06:55;97772.66;;;6.91;50.14
63285;BME280;49409;55.708;37.522;2023-03-03T06:09:20;97770.25;;;6.93;50.04
63285;BME280;49409;55.708;37.522;2023-03-03T06:11:46;97771.63;;;7.01;50.06
63285;BME280;49409;55.708;37.522;2023-03-03T06:14:12;97766.72;;;7.09;49.72
63285;BME280;49409;55.708;37.522;2023-03-03T06:16:37;97776.13;;;7.08;49.53
63285;BME280;49409;55.708;37.522;2023-03-03T06:19:02;97774.72;;;7.16;49.36
63285;BME280;49409;55.708;37.522;2023-03-03T06:21:27;97778.81;;;7.24;49.24
63285;BME280;49409;55.708;37.522;2023-03-03T06:23:55;97767.94;;;7.21;48.87
63285;BME280;49409;55.708;37.522;2023-03-03T06:26:20;97767.19;;;7.20;48.89
63285;BME280;49409;55.708;37.522;2023-03-03T06:28:45;97765.38;;;7.01;49.33
63285;BME280;49409;55.708;37.522;2023-03-03T06:31:12;97772.06;;;7.00;49.54
63285;BME280;49409;55.708;37.522;2023-03-03T06:33:37;97775.47;;;7.04;49.29
63285;BME280;49409;55.708;37.522;2023-03-03T06:36:03;97768.25;;;7.10;49.16
63285;BME280;49409;55.708;37.522;2023-03-03T06:38:28;97769.59;;;7.18;49.19
63285;BME280;49409;55.708;37.522;2023-03-03T06:40:53;97776.06;;;7.24;49.01
63285;BME280;49409;55.708;37.522;2023-03-03T06:43:19;97775.88;;;7.31;48.88
63285;BME280;49409;55.708;37.522;2023-03-03T06:45:44;97780.47;;;7.34;48.89
63285;BME280;49409;55.708;37.522;2023-03-03T06:48:10;97765.94;;;7.38;48.73
63285;BME280;49409;55.708;37.522;2023-03-03T06:50:35;97782.34;;;7.38;48.65
63285;BME280;49409;55.708;37.522;2023-03-03T06:53:11;97774.47;;;7.40;48.57
63285;BME280;49409;55.708;37.522;2023-03-03T06:55:36;97779.09;;;7.43;48.55
63285;BME280;49409;55.708;37.522;2023-03-03T06:58:04;97779.09;;;7.43;48.60
63285;BME280;49409;55.708;37.522;2023-03-03T07:00:33;97787.41;;;7.52;48.33
63285;BME280;49409;55.708;37.522;2023-03-03T07:03:00;97776.34;;;7.55;48.44
63285;BME280;49409;55.708;37.522;2023-03-03T07:05:26;97787.22;;;7.59;48.28
63285;BME280;49409;55.708;37.522;2023-03-03T07:07:53;97784.16;;;7.57;48.07
63285;BME280;49409;55.708;37.522;2023-03-03T07:10:21;97772.81;;;7.42;48.15
63285;BME280;49409;55.708;37.522;2023-03-03T07:12:47;97790.41;;;7.28;48.10
63285;BME280;49409;55.708;37.522;2023-03-03T07:15:16;97787.56;;;7.19;48.32
63285;BME280;49409;55.708;37.522;2023-03-03T07:17:43;97790.81;;;7.14;48.34
63285;BME280;49409;55.708;37.522;2023-03-03T07:20:20;97782.09;;;7.19;48.16
63285;BME280;49409;55.708;37.522;2023-03-03T07:22:46;97785.91;;;7.22;48.33
63285;BME280;49409;55.708;37.522;2023-03-03T07:25:18;97785.25;;;7.18;48.07
63285;BME280;49409;55.708;37.522;2023-03-03T07:27:43;97790.63;;;7.21;48.06
63285;BME280;49409;55.708;37.522;2023-03-03T07:32:37;97781.09;;;7.26;47.98
63285;BME280;49409;55.708;37.522;2023-03-03T07:35:07;97787.16;;;7.33;48.12
63285;BME280;49409;55.708;37.522;2023-03-03T07:37:45;97793.97;;;7.42;47.69
63285;BME280;49409;55.708;37.522;2023-03-03T07:42:55;97790.22;;;7.35;47.37
63285;BME280;49409;55.708;37.522;2023-03-03T07:50:48;97799.00;;;7.14;47.48
63285;BME280;49409;55.708;37.522;2023-03-03T07:53:20;97793.69;;;7.23;47.79
63285;BME280;49409;55.708;37.522;2023-03-03T07:55:48;97791.78;;;7.37;47.53
63285;BME280;49409;55.708;37.522;2023-03-03T07:58:16;97797.69;;;7.48;47.51
63285;BME280;49409;55.708;37.522;2023-03-03T08:03:29;97794.09;;;7.64;46.93
63285;BME280;49409;55.708;37.522;2023-03-03T08:05:55;97792.03;;;7.55;46.92
63285;BME280;49409;55.708;37.522;2023-03-03T08:08:30;97792.22;;;7.48;47.18
63285;BME280;49409;55.708;37.522;2023-03-03T08:10:58;97801.09;;;7.52;47.03
63285;BME280;49409;55.708;37.522;2023-03-03T08:13:27;97799.25;;;7.62;47.06
63285;BME280;49409;55.708;37.522;2023-03-03T08:18:28;97792.50;;;7.92;46.80
63285;BME280;49409;55.708;37.522;2023-03-03T08:20:58;97799.63;;;8.02;46.36
63285;BME280;49409;55.708;37.522;2023-03-03T08:23:24;97802.69;;;8.04;46.30
63285;BME280;49409;55.708;37.522;2023-03-03T08:25:50;97806.75;;;8.12;46.01
63285;BME280;49409;55.708;37.522;2023-03-03T08:28:16;97807.09;;;8.14;46.01
63285;BME280;49409;55.708;37.522;2023-03-03T08:30:42;97809.28;;;8.07;45.89
63285;BME280;49409;55.708;37.522;2023-03-03T08:33:08;97805.66;;;7.97;46.17
63285;BME280;49409;55.708;37.522;2023-03-03T08:35:33;97806.09;;;8.08;46.03
63285;BME280;49409;55.708;37.522;2023-03-03T08:37:59;97811.00;;;8.13;46.12
63285;BME280;49409;55.708;37.522;2023-03-03T08:40:24;97810.16;;;8.17;46.03
63285;BME280;49409;55.708;37.522;2023-03-03T08:42:50;97805.22;;;8.24;46.05
63285;BME280;49409;55.708;37.522;2023-03-03T08:45:16;97807.41;;;8.17;46.39
63285;BME280;49409;55.708;37.522;2023-03-03T08:47:47;97799.72;;;8.11;46.35
63285;BME280;49409;55.708;37.522;2023-03-03T08:50:13;97815.75;;;8.26;46.11
63285;BME280;49409;55.708;37.522;2023-03-03T08:52:42;97810.16;;;8.29;46.26
63285;BME280;49409;55.708;37.522;2023-03-03T08:55:40;97820.13;;;8.36;46.39
63285;BME280;49409;55.708;37.522;2023-03-03T08:58:17;97824.06;;;8.35;46.21
63285;BME280;49409;55.708;37.522;2023-03-03T09:00:48;97819.69;;;8.38;46.13
63285;BME280;49409;55.708;37.522;2023-03-03T09:03:17;97817.91;;;8.31;46.24
63285;BME280;49409;55.708;37.522;2023-03-03T09:05:42;97824.72;;;8.13;46.56
63285;BME280;49409;55.708;37.522;2023-03-03T09:08:09;97816.50;;;8.13;46.45
63285;BME280;49409;55.708;37.522;2023-03-03T09:10:35;97818.16;;;8.24;46.14
63285;BME280;49409;55.708;37.522;2023-03-03T09:13:06;97817.50;;;8.20;46.27
63285;BME280;49409;55.708;37.522;2023-03-03T09:15:36;97813.34;;;8.02;46.49
63285;BME280;49409;55.708;37.522;2023-03-03T09:20:46;97828.31;;;7.98;46.74
63285;BME280;49409;55.708;37.522;2023-03-03T09:25:56;97812.44;;;8.05;46.86
63285;BME280;49409;55.708;37.522;2023-03-03T09:28:26;97817.59;;;8.16;46.42
63285;BME280;49409;55.708;37.522;2023-03-03T09:30:52;97819.03;;;8.21;46.76
63285;BME280;49409;55.708;37.522;2023-03-03T09:33:26;97820.97;;;8.33;46.58
63285;BME280;49409;55.708;37.522;2023-03-03T09:38:35;97821.22;;;8.51;46.53
63285;BME280;49409;55.708;37.522;2023-03-03T09:56:44;97820.59;;;8.82;45.57
63285;BME280;49409;55.708;37.522;2023-03-03T09:59:24;97823.34;;;8.82;45.84
63285;BME280;49409;55.708;37.522;2023-03-03T10:07:15;97816.34;;;8.81;45.53
63285;BME280;49409;55.708;37.522;2023-03-03T10:12:23;97809.50;;;8.99;45.18
63285;BME280;49409;55.708;37.522;2023-03-03T10:17:51;97820.00;;;8.65;45.18
63285;BME280;49409;55.708;37.522;2023-03-03T10:28:25;97814.53;;;8.65;45.27
63285;BME280;49409;55.708;37.522;2023-03-03T10:31:04;97807.50;;;8.64;45.21
63285;BME280;49409;55.708;37.522;2023-03-03T10:38:44;97808.03;;;9.07;44.98
63285;BME280;49409;55.708;37.522;2023-03-03T10:49:25;97808.75;;;8.85;44.44
63285;BME280;49409;55.708;37.522;2023-03-03T10:54:37;97812.03;;;8.93;44.48
63285;BME280;49409;55.708;37.522;2023-03-03T11:04:59;97820.47;;;8.99;44.33
63285;BME280;49409;55.708;37.522;2023-03-03T11:07:41;97821.88;;;9.03;44.13
63285;BME280;49409;55.708;37.522;2023-03-03T11:18:18;97827.78;;;9.02;43.68
63285;BME280;49409;55.708;37.522;2023-03-03T11:29:01;97819.81;;;8.95;44.24
63285;BME280;49409;55.708;37.522;2023-03-03T11:31:43;97834.44;;;8.79;43.66
63285;BME280;49409;55.708;37.522;2023-03-03T11:34:19;97828.88;;;8.57;43.97
63285;BME280;49409;55.708;37.522;2023-03-03T11:36:51;97829.47;;;8.51;44.46
63285;BME280;49409;55.708;37.522;2023-03-03T11:39:21;97823.50;;;8.66;44.15
63285;BME280;49409;55.708;37.522;2023-03-03T11:41:53;97825.13;;;8.76;44.05
63285;BME280;49409;55.708;37.522;2023-03-03T11:44:32;97823.13;;;8.77;43.99
63285;BME280;49409;55.708;37.522;2023-03-03T11:47:12;97825.78;;;8.80;44.19
63285;BME280;49409;55.708;37.522;2023-03-03T11:57:37;97829.56;;;9.08;44.00
63285;BME280;49409;55.708;37.522;2023-03-03T12:10:58;97837.53;;;8.81;44.05
63285;BME280;49409;55.708;37.522;2023-03-03T12:26:23;97845.59;;;8.97;43.91
63285;BME280;49409;55.708;37.522;2023-03-03T12:28:52;97838.69;;;8.92;44.04
63285;BME280;49409;55.708;37.522;2023-03-03T12:34:11;97833.88;;;8.97;44.29
63285;BME280;49409;55.708;37.522;2023-03-03T13:05:15;97840.16;;;8.71;44.21
63285;BME280;49409;55.708;37.522;2023-03-03T13:07:56;97842.34;;;8.77;43.99
63285;BME280;49409;55.708;37.522;2023-03-03T13:10:34;97842.22;;;8.80;44.02
63285;BME280;49409;55.708;37.522;2023-03-03T13:13:07;97843.13;;;8.77;44.00
63285;BME280;49409;55.708;37.522;2023-03-03T13:15:38;97843.34;;;8.83;44.21
63285;BME280;49409;55.708;37.522;2023-03-03T13:26:27;97833.38;;;8.63;43.78
63285;BME280;49409;55.708;37.522;2023-03-03T13:28:58;97834.78;;;8.68;43.58
63285;BME280;49409;55.708;37.522;2023-03-03T13:31:32;97835.34;;;8.63;43.59
63285;BME280;49409;55.708;37.522;2023-03-03T13:33:58;97833.50;;;8.60;43.84
63285;BME280;49409;55.708;37.522;2023-03-03T13:36:47;97831.94;;;8.59;43.40
63285;BME280;49409;55.708;37.522;2023-03-03T13:39:28;97835.00;;;8.61;43.52
63285;BME280;49409;55.708;37.522;2023-03-03T13:41:58;97831.72;;;8.66;43.47
63285;BME280;49409;55.708;37.522;2023-03-03T13:44:39;97832.06;;;8.68;43.41
63285;BME280;49409;55.708;37.522;2023-03-03T13:50:10;97827.53;;;8.74;42.57
63285;BME280;49409;55.708;37.522;2023-03-03T13:55:57;97818.72;;;8.57;42.87
63285;BME280;49409;55.708;37.522;2023-03-03T14:06:01;97826.78;;;8.35;42.96
63285;BME280;49409;55.708;37.522;2023-03-03T14:08:48;97820.31;;;8.29;42.50
63285;BME280;49409;55.708;37.522;2023-03-03T14:16:38;97831.28;;;8.29;42.97
63285;BME280;49409;55.708;37.522;2023-03-03T14:21:51;97836.13;;;8.38;42.55
63285;BME280;49409;55.708;37.522;2023-03-03T14:24:19;97824.94;;;8.32;42.71
63285;BME280;49409;55.708;37.522;2023-03-03T14:26:46;97837.44;;;8.33;42.65
63285;BME280;49409;55.708;37.522;2023-03-03T14:29:46;97836.66;;;8.32;42.60
63285;BME280;49409;55.708;37.522;2023-03-03T14:32:23;97836.78;;;8.29;42.46
63285;BME280;49409;55.708;37.522;2023-03-03T14:34:58;97834.59;;;8.24;42.63
63285;BME280;49409;55.708;37.522;2023-03-03T14:37:41;97833.94;;;8.20;42.58
63285;BME280;49409;55.708;37.522;2023-03-03T14:40:18;97835.25;;;8.15;42.58
63285;BME280;49409;55.708;37.522;2023-03-03T14:47:46;97839.84;;;8.05;42.83
63285;BME280;49409;55.708;37.522;2023-03-03T14:50:32;97839.84;;;8.05;42.73
63285;BME280;49409;55.708;37.522;2023-03-03T14:53:09;97843.22;;;8.09;42.62
63285;BME280;49409;55.708;37.522;2023-03-03T14:55:36;97844.44;;;8.08;42.51
63285;BME280;49409;55.708;37.522;2023-03-03T14:58:02;97839.84;;;8.05;42.46
63285;BME280;49409;55.708;37.522;2023-03-03T15:00:31;97844.66;;;8.01;42.64
63285;BME280;49409;55.708;37.522;2023-03-03T15:02:59;97843.13;;;8.00;42.33
63285;BME280;49409;55.708;37.522;2023-03-03T15:05:27;97844.00;;;7.97;42.60
63285;BME280;49409;55.708;37.522;2023-03-03T15:12:55;97847.81;;;8.00;42.59
63285;BME280;49409;55.708;37.522;2023-03-03T15:15:21;97853.66;;;8.02;42.58
63285;BME280;49409;55.708;37.522;2023-03-03T15:23:07;97856.81;;;8.13;42.63
63285;BME280;49409;55.708;37.522;2023-03-03T15:30:50;97855.84;;;8.20;42.71
63285;BME280;49409;55.708;37.522;2023-03-03T15:36:03;97859.59;;;8.26;42.39
63285;BME280;49409;55.708;37.522;2023-03-03T15:40:59;97858.38;;;8.27;42.51
63285;BME280;49409;55.708;37.522;2023-03-03T15:46:20;97863.06;;;8.13;42.77
63285;BME280;49409;55.708;37.522;2023-03-03T16:01:34;97854.75;;;8.04;42.68
63285;BME280;49409;55.708;37.522;2023-03-03T16:04:05;97869.97;;;8.05;42.73
63285;BME280;49409;55.708;37.522;2023-03-03T16:06:54;97863.28;;;8.06;42.71
63285;BME280;49409;55.708;37.522;2023-03-03T16:11:50;97869.44;;;8.10;42.71
63285;BME280;49409;55.708;37.522;2023-03-03T16:17:12;97862.41;;;8.09;42.84
63285;BME280;49409;55.708;37.522;2023-03-03T16:22:37;97866.03;;;8.06;42.70
63285;BME280;49409;55.708;37.522;2023-03-03T16:35:21;97861.09;;;8.01;42.60
63285;BME280;49409;55.708;37.522;2023-03-03T16:37:53;97858.44;;;7.98;42.75
63285;BME280;49409;55.708;37.522;2023-03-03T16:40:29;97855.84;;;7.94;42.61
63285;BME280;49409;55.708;37.522;2023-03-03T16:43:04;97855.03;;;7.93;42.81
63285;BME280;49409;55.708;37.522;2023-03-03T16:45:34;97858.91;;;7.96;42.75
63285;BME280;49409;55.708;37.522;2023-03-03T16:53:23;97858.44;;;7.98;42.93
63285;BME280;49409;55.708;37.522;2023-03-03T16:56:02;97857.34;;;7.95;42.63
63285;BME280;49409;55.708;37.522;2023-03-03T16:58:48;97858.00;;;7.99;42.77
63285;BME280;49409;55.708;37.522;2023-03-03T17:01:20;97853.44;;;7.96;42.60
63285;BME280;49409;55.708;37.522;2023-03-03T17:06:22;97858.56;;;7.94;42.60
63285;BME280;49409;55.708;37.522;2023-03-03T17:14:13;97855.59;;;7.88;42.29
63285;BME280;49409;55.708;37.522;2023-03-03T17:19:43;97858.19;;;7.66;42.53
63285;BME280;49409;55.708;37.522;2023-03-03T17:24:57;97853.75;;;7.56;42.59
63285;BME280;49409;55.708;37.522;2023-03-03T17:33:02;97853.09;;;7.52;42.55
63285;BME280;49409;55.708;37.522;2023-03-03T17:38:09;97856.66;;;7.36;42.72
63285;BME280;49409;55.708;37.522;2023-03-03T17:43:17;97853.53;;;7.21;42.72
63285;BME280;49409;55.708;37.522;2023-03-03T17:45:46;97855.28;;;7.15;43.26
63285;BME280;49409;55.708;37.522;2023-03-03T17:56:07;97862.81;;;7.11;42.95
63285;BME280;49409;55.708;37.522;2023-03-03T17:58:42;97862.81;;;7.11;42.81
63285;BME280;49409;55.708;37.522;2023-03-03T18:09:04;97857.28;;;7.27;42.60
63285;BME280;49409;55.708;37.522;2023-03-03T18:11:49;97857.63;;;7.29;42.54
63285;BME280;49409;55.708;37.522;2023-03-03T18:22:11;97851.97;;;7.37;42.72
63285;BME280;49409;55.708;37.522;2023-03-03T18:30:12;97858.91;;;7.54;42.84
63285;BME280;49409;55.708;37.522;2023-03-03T18:32:38;97852.91;;;7.59;42.65
63285;BME280;49409;55.708;37.522;2023-03-03T18:37:45;97858.28;;;7.63;42.51
63285;BME280;49409;55.708;37.522;2023-03-03T18:42:43;97854.09;;;7.58;42.46
63285;BME280;49409;55.708;37.522;2023-03-03T18:50:32;97858.78;;;7.45;42.57